Time;durP1;ratioP1;P1;durP2;ratioP2;P2;SDS_P1;SDS_P2;PMS_P1;PMS_P2;Temp;Humidity;BMP_temperature;BMP_pressure;BME280_temperature;BME280_humidity;BME280_pressure;Samples;Min_cycle;Max_cycle;Signal;HPM_P1;HPM_P2
2020/04/06 00:00:51;;;;;;;13.35;8.550001;;;;;;;5.15;62.20703;95436.99;;;;
2020/04/06 00:02:18;;;;;;;13.35;8.550001;;;;;;;5.15;62.20703;95436.99;;;;
2020/04/06 00:03:22;;;;;;;13.35;8.550001;;;;;;;5.15;62.20703;95436.99;;;;
2020/04/06 00:04:29;;;;;;;13.35;8.550001;;;;;;;5.15;62.20703;95436.99;;;;
2020/04/06 00:05:33;;;;;;;13.35;8.550001;;;;;;;5.15;62.20703;95436.99;;;;
2020/04/06 00:06:37;;;;;;;12.35;7.7;;;;;;;4.64;60.56445;95432.98;;;;
2020/04/06 00:07:46;;;;;;;12.35;7.7;;;;;;;4.64;60.56445;95432.98;;;;
2020/04/06 00:08:51;;;;;;;12;8.400001;;;;;;;4.6;61.01367;95430.91;;;;
2020/04/06 00:09:52;;;;;;;12;8.400001;;;;;;;4.6;61.01367;95430.91;;;;
2020/04/06 00:11:36;;;;;;;11.25;9.150002;;;;;;;4.61;61.49316;95432.96;;;;
2020/04/06 00:12:38;;;;;;;11.25;9.150002;;;;;;;4.61;61.49316;95432.96;;;;
2020/04/06 00:13:45;;;;;;;11.25;9.150002;;;;;;;4.61;61.49316;95432.96;;;;
2020/04/06 00:14:48;;;;;;;12.15;8.599999;;;;;;;4.62;62.01367;95428.36;;;;
2020/04/06 00:15:48;;;;;;;12.15;8.599999;;;;;;;4.62;62.01367;95428.36;;;;
2020/04/06 00:16:59;;;;;;;11.8;8.349999;;;;;;;4.63;62.43848;95431.34;;;;
2020/04/06 00:18:00;;;;;;;11.8;8.349999;;;;;;;4.63;62.43848;95431.34;;;;
2020/04/06 00:19:05;;;;;;;11.8;8.349999;;;;;;;4.63;62.43848;95431.34;;;;
2020/04/06 00:20:16;;;;;;;10.6;8.799999;;;;;;;4.63;62.81836;95433.18;;;;
2020/04/06 00:21:23;;;;;;;10.6;8.799999;;;;;;;4.63;62.81836;95433.18;;;;
2020/04/06 00:22:28;;;;;;;12.85;8.700001;;;;;;;4.61;63.10254;95442.74;;;;
2020/04/06 00:23:28;;;;;;;12.85;8.700001;;;;;;;4.61;63.10254;95442.74;;;;
2020/04/06 00:24:29;;;;;;;12.85;8.700001;;;;;;;4.61;63.10254;95442.74;;;;
2020/04/06 00:25:29;;;;;;;12.85;8.700001;;;;;;;4.61;63.10254;95442.74;;;;
2020/04/06 00:26:30;;;;;;;12.85;8.700001;;;;;;;4.61;63.10254;95442.74;;;;
2020/04/06 00:27:56;;;;;;;12.85;8.700001;;;;;;;4.61;63.10254;95442.74;;;;
2020/04/06 00:29:02;;;;;;;12.85;8.700001;;;;;;;4.61;63.10254;95442.74;;;;
2020/04/06 00:30:02;;;;;;;12.85;8.700001;;;;;;;4.61;63.10254;95442.74;;;;
2020/04/06 00:31:12;;;;;;;12.85;8.700001;;;;;;;4.61;63.10254;95442.74;;;;
2020/04/06 00:32:23;;;;;;;12.85;8.700001;;;;;;;4.61;63.10254;95442.74;;;;
2020/04/06 00:33:27;;;;;;;9.85;7.449999;;;;;;;4.22;61.5752;95441.96;;;;
2020/04/06 00:34:35;;;;;;;9.85;7.449999;;;;;;;4.22;61.5752;95441.96;;;;
2020/04/06 00:35:35;;;;;;;10.8;7.649999;;;;;;;4.19;61.88672;95436.55;;;;
2020/04/06 00:36:38;;;;;;;10.8;7.649999;;;;;;;4.19;61.88672;95436.55;;;;
2020/04/06 00:37:47;;;;;;;10.8;7.649999;;;;;;;4.19;61.88672;95436.55;;;;
2020/04/06 00:38:49;;;;;;;12.1;8.549999;;;;;;;4.2;62.4082;95443.56;;;;
2020/04/06 00:39:49;;;;;;;12.1;8.549999;;;;;;;4.2;62.4082;95443.56;;;;
2020/04/06 00:40:53;;;;;;;12.1;8.549999;;;;;;;4.2;62.4082;95443.56;;;;
2020/04/06 00:41:57;;;;;;;12.1;8.549999;;;;;;;4.2;62.4082;95443.56;;;;
2020/04/06 00:42:58;;;;;;;12.1;8.549999;;;;;;;4.2;62.4082;95443.56;;;;
2020/04/06 00:44:04;;;;;;;12.1;8.549999;;;;;;;4.2;62.4082;95443.56;;;;
2020/04/06 00:45:06;;;;;;;12.1;8.549999;;;;;;;4.2;62.4082;95443.56;;;;
2020/04/06 00:46:12;;;;;;;12.1;8.549999;;;;;;;4.2;62.4082;95443.56;;;;
2020/04/06 00:47:15;;;;;;;12.1;8.549999;;;;;;;4.2;62.4082;95443.56;;;;
2020/04/06 00:48:16;;;;;;;12.1;8.549999;;;;;;;4.2;62.4082;95443.56;;;;
2020/04/06 00:49:20;;;;;;;9.05;7.000001;;;;;;;3.81;61.35742;95432.53;;;;
2020/04/06 00:50:28;;;;;;;9.05;7.000001;;;;;;;3.81;61.35742;95432.53;;;;
2020/04/06 00:51:34;;;;;;;10.15;7.65;;;;;;;3.79;61.87109;95440.4;;;;
2020/04/06 00:52:34;;;;;;;10.15;7.65;;;;;;;3.79;61.87109;95440.4;;;;
2020/04/06 00:53:40;;;;;;;10.15;7.65;;;;;;;3.79;61.87109;95440.4;;;;
2020/04/06 00:54:41;;;;;;;10.15;7.65;;;;;;;3.79;61.87109;95440.4;;;;
2020/04/06 00:55:43;;;;;;;10.15;7.65;;;;;;;3.79;61.87109;95440.4;;;;
2020/04/06 00:56:46;;;;;;;10.15;7.65;;;;;;;3.79;61.87109;95440.4;;;;
2020/04/06 00:57:47;;;;;;;10.15;7.65;;;;;;;3.79;61.87109;95440.4;;;;
2020/04/06 00:58:50;;;;;;;10.15;7.65;;;;;;;3.79;61.87109;95440.4;;;;
2020/04/06 00:59:50;;;;;;;10.15;7.65;;;;;;;3.79;61.87109;95440.4;;;;
2020/04/06 01:00:52;;;;;;;10.15;7.65;;;;;;;3.79;61.87109;95440.4;;;;
2020/04/06 01:02:10;;;;;;;10.5;7.099999;;;;;;;3.47;60.96094;95447.87;;;;
2020/04/06 01:03:20;;;;;;;10.5;7.099999;;;;;;;3.47;60.96094;95447.87;;;;
2020/04/06 01:04:29;;;;;;;10.5;7.099999;;;;;;;3.47;60.96094;95447.87;;;;
2020/04/06 01:05:38;;;;;;;11;7.849999;;;;;;;3.46;61.46582;95447.14;;;;
2020/04/06 01:06:50;;;;;;;11;7.849999;;;;;;;3.46;61.46582;95447.14;;;;
2020/04/06 01:07:58;;;;;;;11;7.849999;;;;;;;3.46;61.46582;95447.14;;;;
2020/04/06 01:09:07;;;;;;;11;7.849999;;;;;;;3.46;61.46582;95447.14;;;;
2020/04/06 01:10:26;;;;;;;11;7.849999;;;;;;;3.46;61.46582;95447.14;;;;
2020/04/06 01:11:43;;;;;;;11;7.849999;;;;;;;3.46;61.46582;95447.14;;;;
2020/04/06 01:13:24;;;;;;;11;7.849999;;;;;;;3.46;61.46582;95447.14;;;;
2020/04/06 01:14:43;;;;;;;11;7.849999;;;;;;;3.46;61.46582;95447.14;;;;
2020/04/06 01:15:50;;;;;;;12.2;7.749999;;;;;;;3.21;60.72168;95458.74;;;;
2020/04/06 01:17:11;;;;;;;12.2;7.749999;;;;;;;3.21;60.72168;95458.74;;;;
2020/04/06 01:18:17;;;;;;;10.4;7.9;;;;;;;3.19;61.25879;95458.01;;;;
2020/04/06 01:19:37;;;;;;;10.4;7.9;;;;;;;3.19;61.25879;95458.01;;;;
2020/04/06 01:20:45;;;;;;;12.3;9;;;;;;;3.23;61.90723;95458.89;;;;
2020/04/06 01:21:50;;;;;;;12.3;9;;;;;;;3.23;61.90723;95458.89;;;;
2020/04/06 01:23:08;;;;;;;11;8.5;;;;;;;3.27;62.68457;95467.77;;;;
2020/04/06 01:24:11;;;;;;;11;8.5;;;;;;;3.27;62.68457;95467.77;;;;
2020/04/06 01:25:15;;;;;;;11;8.5;;;;;;;3.27;62.68457;95467.77;;;;
2020/04/06 01:26:16;;;;;;;11;8.5;;;;;;;3.27;62.68457;95467.77;;;;
2020/04/06 01:27:21;;;;;;;11;8.5;;;;;;;3.27;62.68457;95467.77;;;;
2020/04/06 01:28:47;;;;;;;11;8.5;;;;;;;3.27;62.68457;95467.77;;;;
2020/04/06 01:29:57;;;;;;;11;8.5;;;;;;;3.27;62.68457;95467.77;;;;
2020/04/06 01:30:59;;;;;;;11;8.5;;;;;;;3.27;62.68457;95467.77;;;;
2020/04/06 01:32:00;;;;;;;11;8.5;;;;;;;3.27;62.68457;95467.77;;;;
2020/04/06 01:33:17;;;;;;;11;8.5;;;;;;;3.27;62.68457;95467.77;;;;
2020/04/06 01:34:24;;;;;;;9.799999;7.35;;;;;;;2.96;61.83594;95464.06;;;;
2020/04/06 01:35:52;;;;;;;9.799999;7.35;;;;;;;2.96;61.83594;95464.06;;;;
2020/04/06 01:36:57;;;;;;;11.9;8.200001;;;;;;;2.95;62.39551;95461.5;;;;
2020/04/06 01:38:00;;;;;;;11.9;8.200001;;;;;;;2.95;62.39551;95461.5;;;;
2020/04/06 01:39:39;;;;;;;11.9;8.200001;;;;;;;2.95;62.39551;95461.5;;;;
2020/04/06 01:41:51;;;;;;;11.9;8.200001;;;;;;;2.95;62.39551;95461.5;;;;
2020/04/06 01:42:59;;;;;;;11.9;8.200001;;;;;;;2.95;62.39551;95461.5;;;;
2020/04/06 01:44:04;;;;;;;11.9;8.200001;;;;;;;2.95;62.39551;95461.5;;;;
2020/04/06 01:45:13;;;;;;;11.9;8.200001;;;;;;;2.95;62.39551;95461.5;;;;
2020/04/06 01:46:18;;;;;;;11.9;8.200001;;;;;;;2.95;62.39551;95461.5;;;;
2020/04/06 01:47:45;;;;;;;10.7;7.099999;;;;;;;2.8;61.66504;95458.01;;;;
2020/04/06 01:48:51;;;;;;;10.7;7.099999;;;;;;;2.8;61.66504;95458.01;;;;
2020/04/06 01:50:06;;;;;;;11.95;7.749999;;;;;;;2.83;62.1543;95461.21;;;;
2020/04/06 01:52:16;;;;;;;11.95;7.749999;;;;;;;2.83;62.1543;95461.21;;;;
2020/04/06 01:53:18;;;;;;;11.95;7.749999;;;;;;;2.83;62.1543;95461.21;;;;
2020/04/06 01:54:26;;;;;;;11.95;7.749999;;;;;;;2.83;62.1543;95461.21;;;;
2020/04/06 01:55:26;;;;;;;11.95;7.749999;;;;;;;2.83;62.1543;95461.21;;;;
2020/04/06 01:56:28;;;;;;;11.95;7.749999;;;;;;;2.83;62.1543;95461.21;;;;
2020/04/06 01:58:08;;;;;;;11.95;7.749999;;;;;;;2.83;62.1543;95461.21;;;;
2020/04/06 01:59:10;;;;;;;11.95;7.749999;;;;;;;2.83;62.1543;95461.21;;;;
2020/04/06 02:00:19;;;;;;;9.449999;7.399999;;;;;;;2.58;61.25488;95447.34;;;;
2020/04/06 02:01:35;;;;;;;9.449999;7.399999;;;;;;;2.58;61.25488;95447.34;;;;
2020/04/06 02:02:42;;;;;;;9.449999;7.399999;;;;;;;2.58;61.25488;95447.34;;;;
2020/04/06 02:03:49;;;;;;;10.85;7.9;;;;;;;2.57;61.84375;95440.36;;;;
2020/04/06 02:04:50;;;;;;;10.85;7.9;;;;;;;2.57;61.84375;95440.36;;;;
2020/04/06 02:05:59;;;;;;;10.85;7.9;;;;;;;2.57;61.84375;95440.36;;;;
2020/04/06 02:07:42;;;;;;;10.85;7.9;;;;;;;2.57;61.84375;95440.36;;;;
2020/04/06 02:08:52;;;;;;;10.85;7.9;;;;;;;2.57;61.84375;95440.36;;;;
2020/04/06 02:09:57;;;;;;;10.85;7.9;;;;;;;2.57;61.84375;95440.36;;;;
2020/04/06 02:11:17;;;;;;;10.85;7.9;;;;;;;2.57;61.84375;95440.36;;;;
2020/04/06 02:12:51;;;;;;;10.85;7.9;;;;;;;2.57;61.84375;95440.36;;;;
2020/04/06 02:14:12;;;;;;;11.15;7.849999;;;;;;;2.36;61.20215;95449.55;;;;
2020/04/06 02:15:19;;;;;;;11.15;7.849999;;;;;;;2.36;61.20215;95449.55;;;;
2020/04/06 02:16:38;;;;;;;11.15;7.849999;;;;;;;2.36;61.20215;95449.55;;;;
2020/04/06 02:17:57;;;;;;;11.15;7.849999;;;;;;;2.36;61.20215;95449.55;;;;
2020/04/06 02:18:58;;;;;;;11.15;7.849999;;;;;;;2.36;61.20215;95449.55;;;;
2020/04/06 02:20:16;;;;;;;11.15;7.849999;;;;;;;2.36;61.20215;95449.55;;;;
2020/04/06 02:21:21;;;;;;;11.15;7.849999;;;;;;;2.36;61.20215;95449.55;;;;
2020/04/06 02:22:27;;;;;;;11.15;7.849999;;;;;;;2.36;61.20215;95449.55;;;;
2020/04/06 02:23:41;;;;;;;11.15;7.849999;;;;;;;2.36;61.20215;95449.55;;;;
2020/04/06 02:24:42;;;;;;;11.95;7.5;;;;;;;2.22;60.77148;95461.02;;;;
2020/04/06 02:25:47;;;;;;;11.95;7.5;;;;;;;2.22;60.77148;95461.02;;;;
2020/04/06 02:26:50;;;;;;;11.95;7.5;;;;;;;2.22;60.77148;95461.02;;;;
2020/04/06 02:28:01;;;;;;;11.95;7.5;;;;;;;2.22;60.77148;95461.02;;;;
2020/04/06 02:29:10;;;;;;;11.95;7.5;;;;;;;2.22;60.77148;95461.02;;;;
2020/04/06 02:30:11;;;;;;;11.95;7.5;;;;;;;2.22;60.77148;95461.02;;;;
2020/04/06 02:31:32;;;;;;;11.95;7.5;;;;;;;2.22;60.77148;95461.02;;;;
2020/04/06 02:32:40;;;;;;;11.95;7.5;;;;;;;2.22;60.77148;95461.02;;;;
2020/04/06 02:33:51;;;;;;;11.95;7.5;;;;;;;2.22;60.77148;95461.02;;;;
2020/04/06 02:34:57;;;;;;;8.3;6.75;;;;;;;2.02;60.76465;95474.01;;;;
2020/04/06 02:36:34;;;;;;;8.3;6.75;;;;;;;2.02;60.76465;95474.01;;;;
2020/04/06 02:37:39;;;;;;;12;7.949999;;;;;;;2.07;61.31836;95472.16;;;;
2020/04/06 02:38:40;;;;;;;12;7.949999;;;;;;;2.07;61.31836;95472.16;;;;
2020/04/06 02:39:40;;;;;;;12;7.949999;;;;;;;2.07;61.31836;95472.16;;;;
2020/04/06 02:41:19;;;;;;;12;7.949999;;;;;;;2.07;61.31836;95472.16;;;;
2020/04/06 02:42:28;;;;;;;12;7.949999;;;;;;;2.07;61.31836;95472.16;;;;
2020/04/06 02:43:35;;;;;;;12;7.949999;;;;;;;2.07;61.31836;95472.16;;;;
2020/04/06 02:44:36;;;;;;;12;7.949999;;;;;;;2.07;61.31836;95472.16;;;;
2020/04/06 02:45:36;;;;;;;12;7.949999;;;;;;;2.07;61.31836;95472.16;;;;
2020/04/06 02:46:52;;;;;;;12;7.949999;;;;;;;2.07;61.31836;95472.16;;;;
2020/04/06 02:47:52;;;;;;;12;7.949999;;;;;;;2.07;61.31836;95472.16;;;;
2020/04/06 02:48:53;;;;;;;10.2;7;;;;;;;2.04;60.78906;95471.09;;;;
2020/04/06 02:49:55;;;;;;;10.2;7;;;;;;;2.04;60.78906;95471.09;;;;
2020/04/06 02:50:56;;;;;;;11.25;8.1;;;;;;;2.08;61.43555;95473.8;;;;
2020/04/06 02:52:02;;;;;;;11.25;8.1;;;;;;;2.08;61.43555;95473.8;;;;
2020/04/06 02:53:10;;;;;;;11.25;8.1;;;;;;;2.08;61.43555;95473.8;;;;
2020/04/06 02:54:10;;;;;;;11.25;8.1;;;;;;;2.08;61.43555;95473.8;;;;
2020/04/06 02:55:12;;;;;;;11.25;8.1;;;;;;;2.08;61.43555;95473.8;;;;
2020/04/06 02:56:17;;;;;;;11.25;8.1;;;;;;;2.08;61.43555;95473.8;;;;
2020/04/06 02:57:20;;;;;;;11.25;8.1;;;;;;;2.08;61.43555;95473.8;;;;
2020/04/06 02:58:27;;;;;;;11.25;8.1;;;;;;;2.08;61.43555;95473.8;;;;
2020/04/06 02:59:27;;;;;;;11.25;8.1;;;;;;;2.08;61.43555;95473.8;;;;
2020/04/06 03:00:29;;;;;;;11.25;8.1;;;;;;;2.08;61.43555;95473.8;;;;
2020/04/06 03:02:36;;;;;;;11.05;7.85;;;;;;;1.91;60.95996;95496.14;;;;
2020/04/06 03:03:38;;;;;;;11.05;7.85;;;;;;;1.91;60.95996;95496.14;;;;
2020/04/06 03:04:39;;;;;;;11.15;8.299999;;;;;;;1.93;61.63672;95499.95;;;;
2020/04/06 03:05:44;;;;;;;11.15;8.299999;;;;;;;1.93;61.63672;95499.95;;;;
2020/04/06 03:06:46;;;;;;;11.15;8.299999;;;;;;;1.93;61.63672;95499.95;;;;
2020/04/06 03:07:47;;;;;;;11.15;8.299999;;;;;;;1.93;61.63672;95499.95;;;;
2020/04/06 03:08:48;;;;;;;11.15;8.299999;;;;;;;1.93;61.63672;95499.95;;;;
2020/04/06 03:09:49;;;;;;;11.15;8.299999;;;;;;;1.93;61.63672;95499.95;;;;
2020/04/06 03:10:51;;;;;;;11.15;8.299999;;;;;;;1.93;61.63672;95499.95;;;;
2020/04/06 03:11:53;;;;;;;11.15;8.299999;;;;;;;1.93;61.63672;95499.95;;;;
2020/04/06 03:12:54;;;;;;;11.15;8.299999;;;;;;;1.93;61.63672;95499.95;;;;
2020/04/06 03:13:55;;;;;;;11.15;8.299999;;;;;;;1.93;61.63672;95499.95;;;;
2020/04/06 03:14:57;;;;;;;11.45;7.75;;;;;;;1.75;61.21973;95509.64;;;;
2020/04/06 03:16:00;;;;;;;11.45;7.75;;;;;;;1.75;61.21973;95509.64;;;;
2020/04/06 03:17:01;;;;;;;11.45;7.75;;;;;;;1.75;61.21973;95509.64;;;;
2020/04/06 03:18:02;;;;;;;11.45;7.75;;;;;;;1.75;61.21973;95509.64;;;;
2020/04/06 03:19:05;;;;;;;11.45;7.75;;;;;;;1.75;61.21973;95509.64;;;;
2020/04/06 03:20:05;;;;;;;11.45;7.75;;;;;;;1.75;61.21973;95509.64;;;;
2020/04/06 03:21:22;;;;;;;11.45;7.75;;;;;;;1.75;61.21973;95509.64;;;;
2020/04/06 03:22:22;;;;;;;11.45;7.75;;;;;;;1.75;61.21973;95509.64;;;;
2020/04/06 03:23:23;;;;;;;11.45;7.75;;;;;;;1.75;61.21973;95509.64;;;;
2020/04/06 03:24:28;;;;;;;11.45;7.75;;;;;;;1.75;61.21973;95509.64;;;;
2020/04/06 03:25:29;;;;;;;11.1;6.75;;;;;;;1.7;61.21289;95504.86;;;;
2020/04/06 03:26:29;;;;;;;11.1;6.75;;;;;;;1.7;61.21289;95504.86;;;;
2020/04/06 03:27:30;;;;;;;11.1;6.75;;;;;;;1.7;61.21289;95504.86;;;;
2020/04/06 03:28:30;;;;;;;11.1;6.75;;;;;;;1.7;61.21289;95504.86;;;;
2020/04/06 03:29:33;;;;;;;11.1;6.75;;;;;;;1.7;61.21289;95504.86;;;;
2020/04/06 03:30:33;;;;;;;11.1;6.75;;;;;;;1.7;61.21289;95504.86;;;;
2020/04/06 03:31:34;;;;;;;11.1;6.75;;;;;;;1.7;61.21289;95504.86;;;;
2020/04/06 03:32:34;;;;;;;11.1;6.75;;;;;;;1.7;61.21289;95504.86;;;;
2020/04/06 03:33:35;;;;;;;11.1;6.75;;;;;;;1.7;61.21289;95504.86;;;;
2020/04/06 03:34:37;;;;;;;11.1;6.75;;;;;;;1.7;61.21289;95504.86;;;;
2020/04/06 03:35:37;;;;;;;11.1;6.75;;;;;;;1.7;61.21289;95504.86;;;;
2020/04/06 03:36:38;;;;;;;9.7;7.1;;;;;;;1.6;60.89453;95506.94;;;;
2020/04/06 03:37:39;;;;;;;9.7;7.1;;;;;;;1.6;60.89453;95506.94;;;;
2020/04/06 03:38:40;;;;;;;12.75;8.049999;;;;;;;1.64;61.47852;95508.22;;;;
2020/04/06 03:39:40;;;;;;;12.75;8.049999;;;;;;;1.64;61.47852;95508.22;;;;
2020/04/06 03:40:50;;;;;;;12.75;8.049999;;;;;;;1.64;61.47852;95508.22;;;;
2020/04/06 03:41:54;;;;;;;12.75;8.049999;;;;;;;1.64;61.47852;95508.22;;;;
2020/04/06 03:42:55;;;;;;;12.75;8.049999;;;;;;;1.64;61.47852;95508.22;;;;
2020/04/06 03:43:55;;;;;;;12.75;8.049999;;;;;;;1.64;61.47852;95508.22;;;;
2020/04/06 03:44:56;;;;;;;12.75;8.049999;;;;;;;1.64;61.47852;95508.22;;;;
2020/04/06 03:46:22;;;;;;;12.75;8.049999;;;;;;;1.64;61.47852;95508.22;;;;
2020/04/06 03:47:27;;;;;;;12.75;8.049999;;;;;;;1.64;61.47852;95508.22;;;;
2020/04/06 03:48:28;;;;;;;12.75;8.049999;;;;;;;1.64;61.47852;95508.22;;;;
2020/04/06 03:49:37;;;;;;;11;7.15;;;;;;;1.54;61.16016;95511.13;;;;
2020/04/06 03:50:38;;;;;;;11;7.15;;;;;;;1.54;61.16016;95511.13;;;;
2020/04/06 03:51:41;;;;;;;11;7.15;;;;;;;1.54;61.16016;95511.13;;;;
2020/04/06 03:52:44;;;;;;;11;7.15;;;;;;;1.54;61.16016;95511.13;;;;
2020/04/06 03:53:45;;;;;;;11;7.15;;;;;;;1.54;61.16016;95511.13;;;;
2020/04/06 03:54:51;;;;;;;11;7.15;;;;;;;1.54;61.16016;95511.13;;;;
2020/04/06 03:55:52;;;;;;;11;7.15;;;;;;;1.54;61.16016;95511.13;;;;
2020/04/06 03:56:53;;;;;;;11;7.15;;;;;;;1.54;61.16016;95511.13;;;;
2020/04/06 03:57:54;;;;;;;11;7.15;;;;;;;1.54;61.16016;95511.13;;;;
2020/04/06 03:58:55;;;;;;;11;7.15;;;;;;;1.54;61.16016;95511.13;;;;
2020/04/06 03:59:55;;;;;;;9.849999;6.9;;;;;;;1.45;60.8418;95511.77;;;;
2020/04/06 04:00:56;;;;;;;9.849999;6.9;;;;;;;1.45;60.8418;95511.77;;;;
2020/04/06 04:01:56;;;;;;;9.849999;6.9;;;;;;;1.45;60.8418;95511.77;;;;
2020/04/06 04:02:58;;;;;;;9.849999;6.9;;;;;;;1.45;60.8418;95511.77;;;;
2020/04/06 04:03:58;;;;;;;9.849999;6.9;;;;;;;1.45;60.8418;95511.77;;;;
2020/04/06 04:05:00;;;;;;;9.849999;6.9;;;;;;;1.45;60.8418;95511.77;;;;
2020/04/06 04:06:01;;;;;;;9.849999;6.9;;;;;;;1.45;60.8418;95511.77;;;;
2020/04/06 04:07:07;;;;;;;9.849999;6.9;;;;;;;1.45;60.8418;95511.77;;;;
2020/04/06 04:08:08;;;;;;;9.849999;6.9;;;;;;;1.45;60.8418;95511.77;;;;
2020/04/06 04:09:08;;;;;;;9.849999;6.9;;;;;;;1.45;60.8418;95511.77;;;;
2020/04/06 04:10:11;;;;;;;9.849999;6.9;;;;;;;1.45;60.8418;95511.77;;;;
2020/04/06 04:11:12;;;;;;;11.5;7.2;;;;;;;1.27;60.62598;95518.33;;;;
2020/04/06 04:12:19;;;;;;;11.5;7.2;;;;;;;1.27;60.62598;95518.33;;;;
2020/04/06 04:13:19;;;;;;;11.5;7.2;;;;;;;1.27;60.62598;95518.33;;;;
2020/04/06 04:14:20;;;;;;;11.5;7.2;;;;;;;1.27;60.62598;95518.33;;;;
2020/04/06 04:15:20;;;;;;;11.5;7.2;;;;;;;1.27;60.62598;95518.33;;;;
2020/04/06 04:16:21;;;;;;;11.5;7.2;;;;;;;1.27;60.62598;95518.33;;;;
2020/04/06 04:17:22;;;;;;;11.5;7.2;;;;;;;1.27;60.62598;95518.33;;;;
2020/04/06 04:18:23;;;;;;;11.5;7.2;;;;;;;1.27;60.62598;95518.33;;;;
2020/04/06 04:19:24;;;;;;;11.5;7.2;;;;;;;1.27;60.62598;95518.33;;;;
2020/04/06 04:20:25;;;;;;;11.5;7.2;;;;;;;1.27;60.62598;95518.33;;;;
2020/04/06 04:21:25;;;;;;;12.5;7.400001;;;;;;;1.16;60.58984;95537.25;;;;
2020/04/06 04:22:26;;;;;;;12.5;7.400001;;;;;;;1.16;60.58984;95537.25;;;;
2020/04/06 04:23:26;;;;;;;12.5;7.400001;;;;;;;1.16;60.58984;95537.25;;;;
2020/04/06 04:24:27;;;;;;;12.5;7.400001;;;;;;;1.16;60.58984;95537.25;;;;
2020/04/06 04:25:27;;;;;;;12.5;7.400001;;;;;;;1.16;60.58984;95537.25;;;;
2020/04/06 04:26:28;;;;;;;12.5;7.400001;;;;;;;1.16;60.58984;95537.25;;;;
2020/04/06 04:27:28;;;;;;;12.5;7.400001;;;;;;;1.16;60.58984;95537.25;;;;
2020/04/06 04:28:29;;;;;;;12.5;7.400001;;;;;;;1.16;60.58984;95537.25;;;;
2020/04/06 04:29:29;;;;;;;12.5;7.400001;;;;;;;1.16;60.58984;95537.25;;;;
2020/04/06 04:30:29;;;;;;;12.5;7.400001;;;;;;;1.16;60.58984;95537.25;;;;
2020/04/06 04:31:30;;;;;;;11.2;7.65;;;;;;;1.02;60.6123;95553.08;;;;
2020/04/06 04:32:31;;;;;;;11.2;7.65;;;;;;;1.02;60.6123;95553.08;;;;
2020/04/06 04:33:31;;;;;;;11.2;7.65;;;;;;;1.02;60.6123;95553.08;;;;
2020/04/06 04:34:32;;;;;;;11.2;7.65;;;;;;;1.02;60.6123;95553.08;;;;
2020/04/06 04:35:32;;;;;;;11.2;7.65;;;;;;;1.02;60.6123;95553.08;;;;
2020/04/06 04:36:33;;;;;;;11.2;7.65;;;;;;;1.02;60.6123;95553.08;;;;
2020/04/06 04:37:33;;;;;;;11.2;7.65;;;;;;;1.02;60.6123;95553.08;;;;
2020/04/06 04:38:34;;;;;;;11.2;7.65;;;;;;;1.02;60.6123;95553.08;;;;
2020/04/06 04:40:39;;;;;;;11.2;7.65;;;;;;;1.02;60.6123;95553.08;;;;
2020/04/06 04:41:39;;;;;;;11.2;7.65;;;;;;;1.02;60.6123;95553.08;;;;
2020/04/06 04:42:40;;;;;;;10.75;7.449999;;;;;;;1;60.55664;95559.91;;;;
2020/04/06 04:43:44;;;;;;;10.75;7.449999;;;;;;;1;60.55664;95559.91;;;;
2020/04/06 04:44:44;;;;;;;10.75;7.449999;;;;;;;1;60.55664;95559.91;;;;
2020/04/06 04:45:45;;;;;;;10.75;7.449999;;;;;;;1;60.55664;95559.91;;;;
2020/04/06 04:46:45;;;;;;;10.75;7.449999;;;;;;;1;60.55664;95559.91;;;;
2020/04/06 04:47:46;;;;;;;10.75;7.449999;;;;;;;1;60.55664;95559.91;;;;
2020/04/06 04:48:48;;;;;;;10.75;7.449999;;;;;;;1;60.55664;95559.91;;;;
2020/04/06 04:49:48;;;;;;;10.75;7.449999;;;;;;;1;60.55664;95559.91;;;;
2020/04/06 04:50:49;;;;;;;10.75;7.449999;;;;;;;1;60.55664;95559.91;;;;
2020/04/06 04:51:49;;;;;;;10.75;7.449999;;;;;;;1;60.55664;95559.91;;;;
2020/04/06 04:52:50;;;;;;;11.95;7.35;;;;;;;0.97;60.54199;95580.58;;;;
2020/04/06 04:53:50;;;;;;;11.95;7.35;;;;;;;0.97;60.54199;95580.58;;;;
2020/04/06 04:54:51;;;;;;;11.95;7.35;;;;;;;0.97;60.54199;95580.58;;;;
2020/04/06 04:55:51;;;;;;;11.95;7.35;;;;;;;0.97;60.54199;95580.58;;;;
2020/04/06 04:56:52;;;;;;;11.95;7.35;;;;;;;0.97;60.54199;95580.58;;;;
2020/04/06 04:57:52;;;;;;;11.95;7.35;;;;;;;0.97;60.54199;95580.58;;;;
2020/04/06 04:58:53;;;;;;;11.95;7.35;;;;;;;0.97;60.54199;95580.58;;;;
2020/04/06 04:59:53;;;;;;;11.95;7.35;;;;;;;0.97;60.54199;95580.58;;;;
2020/04/06 05:00:53;;;;;;;11.95;7.35;;;;;;;0.97;60.54199;95580.58;;;;
2020/04/06 05:01:54;;;;;;;11.95;7.35;;;;;;;0.97;60.54199;95580.58;;;;
2020/04/06 05:02:54;;;;;;;11.95;7.35;;;;;;;0.97;60.54199;95580.58;;;;
2020/04/06 05:03:56;;;;;;;11.55;7.349999;;;;;;;1.09;60.43164;95594.35;;;;
2020/04/06 05:04:56;;;;;;;11.55;7.349999;;;;;;;1.09;60.43164;95594.35;;;;
2020/04/06 05:05:57;;;;;;;11.55;7.349999;;;;;;;1.09;60.43164;95594.35;;;;
2020/04/06 05:06:57;;;;;;;11.55;7.349999;;;;;;;1.09;60.43164;95594.35;;;;
2020/04/06 05:07:58;;;;;;;11.55;7.349999;;;;;;;1.09;60.43164;95594.35;;;;
2020/04/06 05:08:59;;;;;;;11.55;7.349999;;;;;;;1.09;60.43164;95594.35;;;;
2020/04/06 05:09:59;;;;;;;11.55;7.349999;;;;;;;1.09;60.43164;95594.35;;;;
2020/04/06 05:11:00;;;;;;;11.55;7.349999;;;;;;;1.09;60.43164;95594.35;;;;
2020/04/06 05:12:02;;;;;;;11.55;7.349999;;;;;;;1.09;60.43164;95594.35;;;;
2020/04/06 05:13:03;;;;;;;11.55;7.349999;;;;;;;1.09;60.43164;95594.35;;;;
2020/04/06 05:14:03;;;;;;;10.9;7.250001;;;;;;;1.23;60.37891;95608.68;;;;
2020/04/06 05:15:04;;;;;;;10.9;7.250001;;;;;;;1.23;60.37891;95608.68;;;;
2020/04/06 05:16:05;;;;;;;10.9;7.250001;;;;;;;1.23;60.37891;95608.68;;;;
2020/04/06 05:17:07;;;;;;;10.9;7.250001;;;;;;;1.23;60.37891;95608.68;;;;
2020/04/06 05:18:07;;;;;;;10.9;7.250001;;;;;;;1.23;60.37891;95608.68;;;;
2020/04/06 05:19:08;;;;;;;10.9;7.250001;;;;;;;1.23;60.37891;95608.68;;;;
2020/04/06 05:20:08;;;;;;;10.9;7.250001;;;;;;;1.23;60.37891;95608.68;;;;
2020/04/06 05:21:11;;;;;;;10.9;7.250001;;;;;;;1.23;60.37891;95608.68;;;;
2020/04/06 05:22:11;;;;;;;10.9;7.250001;;;;;;;1.23;60.37891;95608.68;;;;
2020/04/06 05:23:12;;;;;;;10.9;7.250001;;;;;;;1.23;60.37891;95608.68;;;;
2020/04/06 05:24:12;;;;;;;10.9;7.250001;;;;;;;1.23;60.37891;95608.68;;;;
2020/04/06 05:25:14;;;;;;;9.900001;7;;;;;;;1.51;60.21875;95615.33;;;;
2020/04/06 05:26:16;;;;;;;9.900001;7;;;;;;;1.51;60.21875;95615.33;;;;
2020/04/06 05:27:16;;;;;;;9.900001;7;;;;;;;1.51;60.21875;95615.33;;;;
2020/04/06 05:28:17;;;;;;;9.900001;7;;;;;;;1.51;60.21875;95615.33;;;;
2020/04/06 05:29:18;;;;;;;9.900001;7;;;;;;;1.51;60.21875;95615.33;;;;
2020/04/06 05:30:21;;;;;;;9.900001;7;;;;;;;1.51;60.21875;95615.33;;;;
2020/04/06 05:31:24;;;;;;;9.900001;7;;;;;;;1.51;60.21875;95615.33;;;;
2020/04/06 05:32:29;;;;;;;9.900001;7;;;;;;;1.51;60.21875;95615.33;;;;
2020/04/06 05:33:31;;;;;;;9.900001;7;;;;;;;1.51;60.21875;95615.33;;;;
2020/04/06 05:34:37;;;;;;;9.900001;7;;;;;;;1.51;60.21875;95615.33;;;;
2020/04/06 05:35:37;;;;;;;9.6;7.000001;;;;;;;1.81;60.30176;95627.4;;;;
2020/04/06 05:36:44;;;;;;;9.6;7.000001;;;;;;;1.81;60.30176;95627.4;;;;
2020/04/06 05:37:50;;;;;;;9.6;7.000001;;;;;;;1.81;60.30176;95627.4;;;;
2020/04/06 05:38:57;;;;;;;9.450001;8.35;;;;;;;1.96;61.07227;95633.12;;;;
2020/04/06 05:40:02;;;;;;;9.450001;8.35;;;;;;;1.96;61.07227;95633.12;;;;
2020/04/06 05:41:10;;;;;;;9.450001;8.35;;;;;;;1.96;61.07227;95633.12;;;;
2020/04/06 05:42:20;;;;;;;9.450001;8.35;;;;;;;1.96;61.07227;95633.12;;;;
2020/04/06 05:43:26;;;;;;;9.450001;8.35;;;;;;;1.96;61.07227;95633.12;;;;
2020/04/06 05:44:32;;;;;;;9.450001;8.35;;;;;;;1.96;61.07227;95633.12;;;;
2020/04/06 05:45:40;;;;;;;9.450001;8.35;;;;;;;1.96;61.07227;95633.12;;;;
2020/04/06 05:46:44;;;;;;;9.450001;8.35;;;;;;;1.96;61.07227;95633.12;;;;
2020/04/06 05:47:45;;;;;;;9.450001;8.35;;;;;;;1.96;61.07227;95633.12;;;;
2020/04/06 05:48:46;;;;;;;9.5;6.6;;;;;;;2.52;61.13086;95646.2;;;;
2020/04/06 05:49:46;;;;;;;9.5;6.6;;;;;;;2.52;61.13086;95646.2;;;;
2020/04/06 05:50:47;;;;;;;9.5;6.6;;;;;;;2.52;61.13086;95646.2;;;;
2020/04/06 05:51:47;;;;;;;9.5;6.6;;;;;;;2.52;61.13086;95646.2;;;;
2020/04/06 05:52:48;;;;;;;9.5;6.6;;;;;;;2.52;61.13086;95646.2;;;;
2020/04/06 05:53:48;;;;;;;9.5;6.6;;;;;;;2.52;61.13086;95646.2;;;;
2020/04/06 05:54:49;;;;;;;9.5;6.6;;;;;;;2.52;61.13086;95646.2;;;;
2020/04/06 05:55:49;;;;;;;9.5;6.6;;;;;;;2.52;61.13086;95646.2;;;;
2020/04/06 05:56:50;;;;;;;9.5;6.6;;;;;;;2.52;61.13086;95646.2;;;;
2020/04/06 05:57:50;;;;;;;9.5;6.6;;;;;;;2.52;61.13086;95646.2;;;;
2020/04/06 05:58:51;;;;;;;9.5;6.6;;;;;;;2.52;61.13086;95646.2;;;;
2020/04/06 05:59:51;;;;;;;8.250002;7.2;;;;;;;3.27;60.65723;95650.53;;;;
2020/04/06 06:00:52;;;;;;;8.250002;7.2;;;;;;;3.27;60.65723;95650.53;;;;
2020/04/06 06:01:52;;;;;;;8.250002;7.2;;;;;;;3.27;60.65723;95650.53;;;;
2020/04/06 06:02:52;;;;;;;8.250002;7.2;;;;;;;3.27;60.65723;95650.53;;;;
2020/04/06 06:03:53;;;;;;;8.250002;7.2;;;;;;;3.27;60.65723;95650.53;;;;
2020/04/06 06:04:53;;;;;;;8.250002;7.2;;;;;;;3.27;60.65723;95650.53;;;;
2020/04/06 06:05:54;;;;;;;8.250002;7.2;;;;;;;3.27;60.65723;95650.53;;;;
2020/04/06 06:06:54;;;;;;;8.250002;7.2;;;;;;;3.27;60.65723;95650.53;;;;
2020/04/06 06:07:55;;;;;;;8.250002;7.2;;;;;;;3.27;60.65723;95650.53;;;;